sensor_id;sensor_type;location;lat;lon;timestamp;P1;durP1;ratioP1;P2;durP2;ratioP2
56577;SDS011;42461;53.192;5.646;2022-07-30T00:02:18;11.20;;;7.55;;
56577;SDS011;42461;53.192;5.646;2022-07-30T00:04:45;9.75;;;7.13;;
56577;SDS011;42461;53.192;5.646;2022-07-30T00:07:11;8.43;;;6.80;;
56577;SDS011;42461;53.192;5.646;2022-07-30T00:09:37;7.78;;;6.97;;
56577;SDS011;42461;53.192;5.646;2022-07-30T00:12:04;7.15;;;6.45;;
56577;SDS011;42461;53.192;5.646;2022-07-30T00:14:34;7.97;;;6.43;;
56577;SDS011;42461;53.192;5.646;2022-07-30T00:17:01;7.90;;;6.47;;
56577;SDS011;42461;53.192;5.646;2022-07-30T00:19:27;10.07;;;6.80;;
56577;SDS011;42461;53.192;5.646;2022-07-30T00:21:53;9.60;;;7.07;;
56577;SDS011;42461;53.192;5.646;2022-07-30T00:24:19;11.45;;;7.18;;
56577;SDS011;42461;53.192;5.646;2022-07-30T00:26:45;10.38;;;7.60;;
56577;SDS011;42461;53.192;5.646;2022-07-30T00:29:11;8.38;;;7.45;;
56577;SDS011;42461;53.192;5.646;2022-07-30T00:31:37;9.02;;;7.60;;
56577;SDS011;42461;53.192;5.646;2022-07-30T00:34:04;9.23;;;7.78;;
56577;SDS011;42461;53.192;5.646;2022-07-30T00:36:30;8.02;;;7.22;;
56577;SDS011;42461;53.192;5.646;2022-07-30T00:38:56;8.27;;;7.20;;
56577;SDS011;42461;53.192;5.646;2022-07-30T00:41:22;8.30;;;7.18;;
56577;SDS011;42461;53.192;5.646;2022-07-30T00:43:48;8.35;;;7.53;;
56577;SDS011;42461;53.192;5.646;2022-07-30T00:46:14;9.27;;;7.22;;
56577;SDS011;42461;53.192;5.646;2022-07-30T00:48:41;7.80;;;6.97;;
56577;SDS011;42461;53.192;5.646;2022-07-30T00:51:07;8.65;;;6.93;;
56577;SDS011;42461;53.192;5.646;2022-07-30T00:53:33;7.47;;;6.47;;
56577;SDS011;42461;53.192;5.646;2022-07-30T00:56:00;7.20;;;6.50;;
56577;SDS011;42461;53.192;5.646;2022-07-30T00:58:26;8.00;;;7.18;;
56577;SDS011;42461;53.192;5.646;2022-07-30T01:00:52;10.40;;;7.28;;
56577;SDS011;42461;53.192;5.646;2022-07-30T01:03:18;7.63;;;6.50;;
56577;SDS011;42461;53.192;5.646;2022-07-30T01:05:44;8.98;;;7.07;;
56577;SDS011;42461;53.192;5.646;2022-07-30T01:08:11;9.40;;;6.65;;
56577;SDS011;42461;53.192;5.646;2022-07-30T01:10:37;8.15;;;7.20;;
56577;SDS011;42461;53.192;5.646;2022-07-30T01:13:03;9.27;;;6.93;;
56577;SDS011;42461;53.192;5.646;2022-07-30T01:15:30;9.20;;;7.38;;
56577;SDS011;42461;53.192;5.646;2022-07-30T01:17:57;6.30;;;5.25;;
56577;SDS011;42461;53.192;5.646;2022-07-30T01:20:44;6.38;;;5.47;;
56577;SDS011;42461;53.192;5.646;2022-07-30T01:23:20;6.97;;;5.65;;
56577;SDS011;42461;53.192;5.646;2022-07-30T01:28:20;8.30;;;6.45;;
56577;SDS011;42461;53.192;5.646;2022-07-30T01:30:46;7.60;;;6.72;;
56577;SDS011;42461;53.192;5.646;2022-07-30T01:33:16;9.75;;;6.72;;
56577;SDS011;42461;53.192;5.646;2022-07-30T01:35:44;8.90;;;7.28;;
56577;SDS011;42461;53.192;5.646;2022-07-30T01:38:11;7.53;;;6.25;;
56577;SDS011;42461;53.192;5.646;2022-07-30T01:40:39;7.50;;;6.70;;
56577;SDS011;42461;53.192;5.646;2022-07-30T01:43:07;8.77;;;7.05;;
56577;SDS011;42461;53.192;5.646;2022-07-30T01:45:33;7.70;;;7.00;;
56577;SDS011;42461;53.192;5.646;2022-07-30T01:48:00;10.65;;;7.25;;
56577;SDS011;42461;53.192;5.646;2022-07-30T01:50:27;8.25;;;7.43;;
56577;SDS011;42461;53.192;5.646;2022-07-30T01:52:55;9.85;;;7.50;;
56577;SDS011;42461;53.192;5.646;2022-07-30T01:55:24;9.35;;;7.88;;
56577;SDS011;42461;53.192;5.646;2022-07-30T01:57:51;12.55;;;8.45;;
56577;SDS011;42461;53.192;5.646;2022-07-30T02:00:18;9.63;;;8.55;;
56577;SDS011;42461;53.192;5.646;2022-07-30T02:02:45;11.95;;;7.65;;
56577;SDS011;42461;53.192;5.646;2022-07-30T02:05:11;9.27;;;8.05;;
56577;SDS011;42461;53.192;5.646;2022-07-30T02:07:39;9.82;;;8.35;;
56577;SDS011;42461;53.192;5.646;2022-07-30T02:10:12;9.82;;;8.20;;
56577;SDS011;42461;53.192;5.646;2022-07-30T02:12:42;9.27;;;7.93;;
56577;SDS011;42461;53.192;5.646;2022-07-30T02:20:42;12.15;;;8.45;;
56577;SDS011;42461;53.192;5.646;2022-07-30T02:23:09;10.10;;;8.43;;
56577;SDS011;42461;53.192;5.646;2022-07-30T02:25:36;12.18;;;8.00;;
56577;SDS011;42461;53.192;5.646;2022-07-30T02:28:03;10.25;;;7.38;;
56577;SDS011;42461;53.192;5.646;2022-07-30T02:30:33;10.52;;;7.38;;
56577;SDS011;42461;53.192;5.646;2022-07-30T02:33:02;11.20;;;7.82;;
56577;SDS011;42461;53.192;5.646;2022-07-30T02:35:30;7.32;;;6.53;;
56577;SDS011;42461;53.192;5.646;2022-07-30T02:37:56;11.57;;;7.22;;
56577;SDS011;42461;53.192;5.646;2022-07-30T02:40:24;8.45;;;6.38;;
56577;SDS011;42461;53.192;5.646;2022-07-30T02:42:51;8.77;;;6.78;;
56577;SDS011;42461;53.192;5.646;2022-07-30T02:45:18;10.07;;;6.72;;
56577;SDS011;42461;53.192;5.646;2022-07-30T02:47:45;14.70;;;7.20;;
56577;SDS011;42461;53.192;5.646;2022-07-30T02:50:13;10.10;;;6.32;;
56577;SDS011;42461;53.192;5.646;2022-07-30T02:52:40;9.48;;;6.40;;
56577;SDS011;42461;53.192;5.646;2022-07-30T02:55:07;13.55;;;7.00;;
56577;SDS011;42461;53.192;5.646;2022-07-30T02:57:34;10.77;;;6.40;;
56577;SDS011;42461;53.192;5.646;2022-07-30T03:00:00;10.30;;;6.25;;
56577;SDS011;42461;53.192;5.646;2022-07-30T03:02:27;9.57;;;5.70;;
56577;SDS011;42461;53.192;5.646;2022-07-30T03:04:55;9.32;;;5.53;;
56577;SDS011;42461;53.192;5.646;2022-07-30T03:07:22;9.80;;;5.75;;
56577;SDS011;42461;53.192;5.646;2022-07-30T03:09:49;11.15;;;6.05;;
56577;SDS011;42461;53.192;5.646;2022-07-30T03:12:17;9.32;;;5.63;;
56577;SDS011;42461;53.192;5.646;2022-07-30T03:14:44;8.85;;;5.70;;
56577;SDS011;42461;53.192;5.646;2022-07-30T03:17:10;10.73;;;5.90;;
56577;SDS011;42461;53.192;5.646;2022-07-30T03:19:37;13.18;;;5.72;;
56577;SDS011;42461;53.192;5.646;2022-07-30T03:22:03;9.00;;;6.32;;
56577;SDS011;42461;53.192;5.646;2022-07-30T03:24:31;8.32;;;5.63;;
56577;SDS011;42461;53.192;5.646;2022-07-30T03:26:58;9.68;;;6.45;;
56577;SDS011;42461;53.192;5.646;2022-07-30T03:29:27;9.95;;;6.20;;
56577;SDS011;42461;53.192;5.646;2022-07-30T03:31:54;9.05;;;5.45;;
56577;SDS011;42461;53.192;5.646;2022-07-30T03:34:21;11.02;;;6.15;;
56577;SDS011;42461;53.192;5.646;2022-07-30T03:36:47;11.20;;;6.50;;
56577;SDS011;42461;53.192;5.646;2022-07-30T03:39:14;8.05;;;6.10;;
56577;SDS011;42461;53.192;5.646;2022-07-30T03:41:40;12.10;;;5.93;;
56577;SDS011;42461;53.192;5.646;2022-07-30T03:44:06;12.80;;;6.18;;
56577;SDS011;42461;53.192;5.646;2022-07-30T03:46:34;11.75;;;6.00;;
56577;SDS011;42461;53.192;5.646;2022-07-30T03:49:01;9.80;;;6.40;;
56577;SDS011;42461;53.192;5.646;2022-07-30T03:51:27;9.93;;;6.40;;
56577;SDS011;42461;53.192;5.646;2022-07-30T03:53:53;9.90;;;6.05;;
56577;SDS011;42461;53.192;5.646;2022-07-30T03:56:20;12.38;;;5.90;;
56577;SDS011;42461;53.192;5.646;2022-07-30T03:58:46;10.65;;;5.40;;
56577;SDS011;42461;53.192;5.646;2022-07-30T04:01:12;12.38;;;5.97;;
56577;SDS011;42461;53.192;5.646;2022-07-30T04:03:38;11.68;;;6.30;;
56577;SDS011;42461;53.192;5.646;2022-07-30T04:06:04;8.93;;;5.53;;
56577;SDS011;42461;53.192;5.646;2022-07-30T04:08:30;7.90;;;4.90;;
56577;SDS011;42461;53.192;5.646;2022-07-30T04:10:56;9.18;;;6.00;;
56577;SDS011;42461;53.192;5.646;2022-07-30T04:13:22;11.00;;;6.90;;
56577;SDS011;42461;53.192;5.646;2022-07-30T04:18:14;9.98;;;7.07;;
56577;SDS011;42461;53.192;5.646;2022-07-30T04:20:42;11.13;;;7.30;;
56577;SDS011;42461;53.192;5.646;2022-07-30T04:23:09;13.93;;;6.85;;
56577;SDS011;42461;53.192;5.646;2022-07-30T04:25:35;8.98;;;6.68;;
56577;SDS011;42461;53.192;5.646;2022-07-30T04:28:03;10.35;;;6.40;;
56577;SDS011;42461;53.192;5.646;2022-07-30T04:30:30;7.72;;;6.07;;
56577;SDS011;42461;53.192;5.646;2022-07-30T04:32:58;11.98;;;6.20;;
56577;SDS011;42461;53.192;5.646;2022-07-30T04:35:30;11.65;;;6.25;;
56577;SDS011;42461;53.192;5.646;2022-07-30T04:37:56;9.25;;;5.90;;
56577;SDS011;42461;53.192;5.646;2022-07-30T04:40:24;8.30;;;5.78;;
56577;SDS011;42461;53.192;5.646;2022-07-30T04:42:50;9.18;;;5.88;;
56577;SDS011;42461;53.192;5.646;2022-07-30T04:45:16;10.95;;;5.70;;
56577;SDS011;42461;53.192;5.646;2022-07-30T04:47:44;6.78;;;5.43;;
56577;SDS011;42461;53.192;5.646;2022-07-30T04:50:10;8.82;;;5.80;;
56577;SDS011;42461;53.192;5.646;2022-07-30T04:52:37;11.38;;;5.22;;
56577;SDS011;42461;53.192;5.646;2022-07-30T04:55:04;8.30;;;5.43;;
56577;SDS011;42461;53.192;5.646;2022-07-30T04:57:31;13.00;;;5.75;;
56577;SDS011;42461;53.192;5.646;2022-07-30T04:59:58;9.18;;;4.80;;
56577;SDS011;42461;53.192;5.646;2022-07-30T05:02:24;8.48;;;5.07;;
56577;SDS011;42461;53.192;5.646;2022-07-30T05:04:51;9.75;;;5.55;;
56577;SDS011;42461;53.192;5.646;2022-07-30T05:07:19;11.80;;;5.35;;
56577;SDS011;42461;53.192;5.646;2022-07-30T05:09:46;11.15;;;4.80;;
56577;SDS011;42461;53.192;5.646;2022-07-30T05:12:12;8.82;;;4.93;;
56577;SDS011;42461;53.192;5.646;2022-07-30T05:14:38;8.63;;;4.70;;
56577;SDS011;42461;53.192;5.646;2022-07-30T05:17:04;9.18;;;5.13;;
56577;SDS011;42461;53.192;5.646;2022-07-30T05:19:30;12.70;;;5.50;;
56577;SDS011;42461;53.192;5.646;2022-07-30T05:21:56;11.68;;;5.50;;
56577;SDS011;42461;53.192;5.646;2022-07-30T05:24:22;8.82;;;5.70;;
56577;SDS011;42461;53.192;5.646;2022-07-30T05:26:48;9.57;;;5.78;;
56577;SDS011;42461;53.192;5.646;2022-07-30T05:29:14;12.00;;;5.57;;
56577;SDS011;42461;53.192;5.646;2022-07-30T05:31:40;10.23;;;5.25;;
56577;SDS011;42461;53.192;5.646;2022-07-30T05:34:07;11.52;;;5.90;;
56577;SDS011;42461;53.192;5.646;2022-07-30T05:36:33;9.02;;;5.82;;
56577;SDS011;42461;53.192;5.646;2022-07-30T05:38:59;13.55;;;5.63;;
56577;SDS011;42461;53.192;5.646;2022-07-30T05:41:25;12.10;;;5.72;;
56577;SDS011;42461;53.192;5.646;2022-07-30T05:43:52;10.65;;;5.70;;
56577;SDS011;42461;53.192;5.646;2022-07-30T05:46:18;8.98;;;6.10;;
56577;SDS011;42461;53.192;5.646;2022-07-30T05:48:44;11.88;;;5.85;;
56577;SDS011;42461;53.192;5.646;2022-07-30T05:51:10;9.93;;;6.15;;
56577;SDS011;42461;53.192;5.646;2022-07-30T05:53:36;10.45;;;5.65;;
56577;SDS011;42461;53.192;5.646;2022-07-30T05:56:02;9.52;;;5.75;;
56577;SDS011;42461;53.192;5.646;2022-07-30T05:58:28;9.15;;;6.45;;
56577;SDS011;42461;53.192;5.646;2022-07-30T06:00:54;7.13;;;6.00;;
56577;SDS011;42461;53.192;5.646;2022-07-30T06:03:20;10.95;;;6.45;;
56577;SDS011;42461;53.192;5.646;2022-07-30T06:05:46;13.15;;;6.40;;
56577;SDS011;42461;53.192;5.646;2022-07-30T06:08:12;10.02;;;6.30;;
56577;SDS011;42461;53.192;5.646;2022-07-30T06:10:38;11.65;;;6.28;;
56577;SDS011;42461;53.192;5.646;2022-07-30T06:13:04;12.75;;;5.85;;
56577;SDS011;42461;53.192;5.646;2022-07-30T06:15:30;13.68;;;5.50;;
56577;SDS011;42461;53.192;5.646;2022-07-30T06:17:56;8.63;;;5.25;;
56577;SDS011;42461;53.192;5.646;2022-07-30T06:20:22;9.98;;;5.30;;
56577;SDS011;42461;53.192;5.646;2022-07-30T06:22:48;9.20;;;5.45;;
56577;SDS011;42461;53.192;5.646;2022-07-30T06:25:14;8.80;;;6.15;;
56577;SDS011;42461;53.192;5.646;2022-07-30T06:27:40;10.10;;;5.60;;
56577;SDS011;42461;53.192;5.646;2022-07-30T06:30:07;7.82;;;6.22;;
56577;SDS011;42461;53.192;5.646;2022-07-30T06:32:33;13.88;;;5.97;;
56577;SDS011;42461;53.192;5.646;2022-07-30T06:34:59;10.65;;;6.40;;
56577;SDS011;42461;53.192;5.646;2022-07-30T06:37:25;7.82;;;5.60;;
56577;SDS011;42461;53.192;5.646;2022-07-30T06:39:52;15.48;;;5.60;;
56577;SDS011;42461;53.192;5.646;2022-07-30T06:42:18;9.15;;;5.10;;
56577;SDS011;42461;53.192;5.646;2022-07-30T06:44:45;8.30;;;4.47;;
56577;SDS011;42461;53.192;5.646;2022-07-30T06:47:19;11.38;;;4.90;;
56577;SDS011;42461;53.192;5.646;2022-07-30T06:49:56;9.60;;;5.35;;
56577;SDS011;42461;53.192;5.646;2022-07-30T06:52:22;9.18;;;5.10;;
56577;SDS011;42461;53.192;5.646;2022-07-30T06:54:48;12.25;;;5.57;;
56577;SDS011;42461;53.192;5.646;2022-07-30T06:57:15;10.10;;;5.05;;
56577;SDS011;42461;53.192;5.646;2022-07-30T06:59:41;7.03;;;4.45;;
56577;SDS011;42461;53.192;5.646;2022-07-30T07:02:07;7.32;;;4.78;;
56577;SDS011;42461;53.192;5.646;2022-07-30T07:04:33;8.93;;;4.53;;
56577;SDS011;42461;53.192;5.646;2022-07-30T07:06:59;10.40;;;4.63;;
56577;SDS011;42461;53.192;5.646;2022-07-30T07:09:25;8.55;;;4.57;;
56577;SDS011;42461;53.192;5.646;2022-07-30T07:11:51;10.40;;;4.30;;
56577;SDS011;42461;53.192;5.646;2022-07-30T07:14:17;6.28;;;3.95;;
56577;SDS011;42461;53.192;5.646;2022-07-30T07:16:43;11.52;;;4.68;;
56577;SDS011;42461;53.192;5.646;2022-07-30T07:19:09;6.72;;;4.10;;
56577;SDS011;42461;53.192;5.646;2022-07-30T07:21:35;6.55;;;4.15;;
56577;SDS011;42461;53.192;5.646;2022-07-30T07:24:01;6.45;;;4.25;;
56577;SDS011;42461;53.192;5.646;2022-07-30T07:26:28;7.47;;;3.60;;
56577;SDS011;42461;53.192;5.646;2022-07-30T07:28:55;5.40;;;3.40;;
56577;SDS011;42461;53.192;5.646;2022-07-30T07:31:21;7.43;;;3.58;;
56577;SDS011;42461;53.192;5.646;2022-07-30T07:33:47;6.22;;;3.78;;
56577;SDS011;42461;53.192;5.646;2022-07-30T07:36:14;5.70;;;3.33;;
56577;SDS011;42461;53.192;5.646;2022-07-30T07:38:40;9.00;;;3.45;;
56577;SDS011;42461;53.192;5.646;2022-07-30T07:41:06;6.60;;;3.38;;
56577;SDS011;42461;53.192;5.646;2022-07-30T07:43:32;9.55;;;4.45;;
56577;SDS011;42461;53.192;5.646;2022-07-30T07:45:58;8.88;;;4.03;;
56577;SDS011;42461;53.192;5.646;2022-07-30T07:48:24;5.63;;;3.90;;
56577;SDS011;42461;53.192;5.646;2022-07-30T07:50:50;8.95;;;3.95;;
56577;SDS011;42461;53.192;5.646;2022-07-30T07:53:16;7.03;;;4.05;;
56577;SDS011;42461;53.192;5.646;2022-07-30T07:55:42;7.70;;;3.78;;
56577;SDS011;42461;53.192;5.646;2022-07-30T07:58:08;7.65;;;4.03;;
56577;SDS011;42461;53.192;5.646;2022-07-30T08:00:37;7.72;;;3.88;;
56577;SDS011;42461;53.192;5.646;2022-07-30T08:03:03;5.38;;;3.55;;
56577;SDS011;42461;53.192;5.646;2022-07-30T08:05:29;6.07;;;3.80;;
56577;SDS011;42461;53.192;5.646;2022-07-30T08:07:55;9.40;;;3.92;;
56577;SDS011;42461;53.192;5.646;2022-07-30T08:10:21;6.95;;;3.70;;
56577;SDS011;42461;53.192;5.646;2022-07-30T08:12:48;5.25;;;3.35;;
56577;SDS011;42461;53.192;5.646;2022-07-30T08:15:14;5.80;;;3.67;;
56577;SDS011;42461;53.192;5.646;2022-07-30T08:17:40;9.48;;;3.33;;
56577;SDS011;42461;53.192;5.646;2022-07-30T08:20:07;6.60;;;3.35;;
56577;SDS011;42461;53.192;5.646;2022-07-30T08:22:33;7.10;;;3.60;;
56577;SDS011;42461;53.192;5.646;2022-07-30T08:24:59;4.82;;;3.45;;
56577;SDS011;42461;53.192;5.646;2022-07-30T08:27:25;4.45;;;3.20;;
56577;SDS011;42461;53.192;5.646;2022-07-30T08:29:51;4.47;;;3.25;;
56577;SDS011;42461;53.192;5.646;2022-07-30T08:32:17;4.70;;;3.05;;
56577;SDS011;42461;53.192;5.646;2022-07-30T08:34:43;6.95;;;3.25;;
56577;SDS011;42461;53.192;5.646;2022-07-30T08:37:09;6.15;;;3.03;;
56577;SDS011;42461;53.192;5.646;2022-07-30T08:39:35;6.93;;;3.50;;
56577;SDS011;42461;53.192;5.646;2022-07-30T08:42:02;5.00;;;2.95;;
56577;SDS011;42461;53.192;5.646;2022-07-30T08:44:28;6.90;;;3.35;;
56577;SDS011;42461;53.192;5.646;2022-07-30T08:46:55;5.60;;;3.40;;
56577;SDS011;42461;53.192;5.646;2022-07-30T08:49:22;6.07;;;3.35;;
56577;SDS011;42461;53.192;5.646;2022-07-30T08:51:51;6.18;;;3.35;;
56577;SDS011;42461;53.192;5.646;2022-07-30T08:54:17;7.05;;;3.03;;
56577;SDS011;42461;53.192;5.646;2022-07-30T08:56:44;6.38;;;3.20;;
56577;SDS011;42461;53.192;5.646;2022-07-30T08:59:11;7.28;;;2.90;;
56577;SDS011;42461;53.192;5.646;2022-07-30T09:01:37;5.38;;;2.92;;
56577;SDS011;42461;53.192;5.646;2022-07-30T09:04:03;5.53;;;3.00;;
56577;SDS011;42461;53.192;5.646;2022-07-30T09:06:29;7.82;;;3.00;;
56577;SDS011;42461;53.192;5.646;2022-07-30T09:08:55;5.68;;;2.72;;
56577;SDS011;42461;53.192;5.646;2022-07-30T09:11:21;6.30;;;2.92;;
56577;SDS011;42461;53.192;5.646;2022-07-30T09:13:47;4.85;;;2.72;;
56577;SDS011;42461;53.192;5.646;2022-07-30T09:16:22;5.78;;;3.13;;
56577;SDS011;42461;53.192;5.646;2022-07-30T09:18:49;4.90;;;2.45;;
56577;SDS011;42461;53.192;5.646;2022-07-30T09:21:25;4.32;;;2.80;;
56577;SDS011;42461;53.192;5.646;2022-07-30T09:24:03;4.00;;;2.65;;
56577;SDS011;42461;53.192;5.646;2022-07-30T09:26:29;5.88;;;2.53;;
56577;SDS011;42461;53.192;5.646;2022-07-30T09:29:16;3.60;;;2.58;;
56577;SDS011;42461;53.192;5.646;2022-07-30T09:32:01;5.30;;;2.92;;
56577;SDS011;42461;53.192;5.646;2022-07-30T09:34:34;7.70;;;2.58;;
56577;SDS011;42461;53.192;5.646;2022-07-30T09:37:01;5.05;;;2.35;;
56577;SDS011;42461;53.192;5.646;2022-07-30T09:39:32;5.95;;;2.92;;
56577;SDS011;42461;53.192;5.646;2022-07-30T09:41:59;5.18;;;2.75;;
56577;SDS011;42461;53.192;5.646;2022-07-30T09:44:26;7.20;;;2.90;;
56577;SDS011;42461;53.192;5.646;2022-07-30T09:46:53;5.13;;;2.70;;
56577;SDS011;42461;53.192;5.646;2022-07-30T09:49:20;10.57;;;2.47;;
56577;SDS011;42461;53.192;5.646;2022-07-30T09:51:47;4.70;;;2.42;;
56577;SDS011;42461;53.192;5.646;2022-07-30T09:54:13;4.55;;;2.95;;
56577;SDS011;42461;53.192;5.646;2022-07-30T09:56:39;5.55;;;2.47;;
56577;SDS011;42461;53.192;5.646;2022-07-30T09:59:11;4.43;;;2.08;;
56577;SDS011;42461;53.192;5.646;2022-07-30T10:01:50;3.47;;;2.50;;
56577;SDS011;42461;53.192;5.646;2022-07-30T10:04:26;4.47;;;2.53;;
56577;SDS011;42461;53.192;5.646;2022-07-30T10:06:54;4.70;;;2.67;;
56577;SDS011;42461;53.192;5.646;2022-07-30T10:09:24;7.22;;;2.70;;
56577;SDS011;42461;53.192;5.646;2022-07-30T10:11:50;4.63;;;2.50;;
56577;SDS011;42461;53.192;5.646;2022-07-30T10:14:16;4.55;;;2.60;;
56577;SDS011;42461;53.192;5.646;2022-07-30T10:16:42;3.72;;;2.60;;
56577;SDS011;42461;53.192;5.646;2022-07-30T10:19:09;7.85;;;2.88;;
56577;SDS011;42461;53.192;5.646;2022-07-30T10:21:36;5.70;;;2.30;;
56577;SDS011;42461;53.192;5.646;2022-07-30T10:24:02;9.70;;;2.60;;
56577;SDS011;42461;53.192;5.646;2022-07-30T10:26:31;3.13;;;2.22;;
56577;SDS011;42461;53.192;5.646;2022-07-30T10:28:59;4.22;;;2.47;;
56577;SDS011;42461;53.192;5.646;2022-07-30T10:31:25;5.00;;;2.35;;
56577;SDS011;42461;53.192;5.646;2022-07-30T10:33:51;4.15;;;2.80;;
56577;SDS011;42461;53.192;5.646;2022-07-30T10:36:18;3.65;;;2.08;;
56577;SDS011;42461;53.192;5.646;2022-07-30T10:38:44;4.40;;;2.30;;
56577;SDS011;42461;53.192;5.646;2022-07-30T10:44:19;5.43;;;2.40;;
56577;SDS011;42461;53.192;5.646;2022-07-30T10:46:56;4.15;;;2.00;;
56577;SDS011;42461;53.192;5.646;2022-07-30T10:49:26;3.45;;;2.15;;
56577;SDS011;42461;53.192;5.646;2022-07-30T10:51:53;3.53;;;2.10;;
56577;SDS011;42461;53.192;5.646;2022-07-30T11:02:14;3.00;;;1.98;;
56577;SDS011;42461;53.192;5.646;2022-07-30T11:04:40;3.15;;;2.03;;
56577;SDS011;42461;53.192;5.646;2022-07-30T11:09:49;3.75;;;2.10;;
56577;SDS011;42461;53.192;5.646;2022-07-30T11:12:50;2.38;;;1.60;;
56577;SDS011;42461;53.192;5.646;2022-07-30T11:15:01;4.35;;;1.80;;
56577;SDS011;42461;53.192;5.646;2022-07-30T11:17:28;3.72;;;2.42;;
56577;SDS011;42461;53.192;5.646;2022-07-30T11:20:13;3.05;;;1.80;;
56577;SDS011;42461;53.192;5.646;2022-07-30T11:22:40;4.30;;;1.90;;
56577;SDS011;42461;53.192;5.646;2022-07-30T11:25:09;3.75;;;1.65;;
56577;SDS011;42461;53.192;5.646;2022-07-30T11:27:38;2.80;;;1.60;;
56577;SDS011;42461;53.192;5.646;2022-07-30T11:30:05;2.25;;;1.50;;
56577;SDS011;42461;53.192;5.646;2022-07-30T11:32:54;3.95;;;1.73;;
56577;SDS011;42461;53.192;5.646;2022-07-30T11:35:28;3.17;;;1.77;;
56577;SDS011;42461;53.192;5.646;2022-07-30T11:37:58;2.55;;;1.58;;
56577;SDS011;42461;53.192;5.646;2022-07-30T11:40:25;5.20;;;1.67;;
56577;SDS011;42461;53.192;5.646;2022-07-30T11:43:13;3.90;;;1.63;;
56577;SDS011;42461;53.192;5.646;2022-07-30T11:45:38;2.75;;;1.73;;
56577;SDS011;42461;53.192;5.646;2022-07-30T11:48:08;5.00;;;2.20;;
56577;SDS011;42461;53.192;5.646;2022-07-30T11:50:34;4.25;;;1.75;;
56577;SDS011;42461;53.192;5.646;2022-07-30T11:53:12;4.65;;;1.80;;
56577;SDS011;42461;53.192;5.646;2022-07-30T11:55:40;4.07;;;1.85;;
56577;SDS011;42461;53.192;5.646;2022-07-30T11:58:12;3.80;;;1.58;;
56577;SDS011;42461;53.192;5.646;2022-07-30T12:00:48;2.22;;;1.55;;
56577;SDS011;42461;53.192;5.646;2022-07-30T12:03:16;2.35;;;1.50;;
56577;SDS011;42461;53.192;5.646;2022-07-30T12:05:42;5.00;;;2.20;;
56577;SDS011;42461;53.192;5.646;2022-07-30T12:08:10;2.55;;;1.40;;
56577;SDS011;42461;53.192;5.646;2022-07-30T12:10:38;4.15;;;1.80;;
56577;SDS011;42461;53.192;5.646;2022-07-30T12:13:05;5.30;;;1.90;;
56577;SDS011;42461;53.192;5.646;2022-07-30T12:15:33;3.65;;;1.60;;
56577;SDS011;42461;53.192;5.646;2022-07-30T12:18:00;3.15;;;1.40;;
56577;SDS011;42461;53.192;5.646;2022-07-30T12:20:26;2.60;;;1.27;;
56577;SDS011;42461;53.192;5.646;2022-07-30T12:22:53;3.60;;;1.30;;
56577;SDS011;42461;53.192;5.646;2022-07-30T12:25:19;2.50;;;1.40;;
56577;SDS011;42461;53.192;5.646;2022-07-30T12:27:46;2.63;;;1.45;;
56577;SDS011;42461;53.192;5.646;2022-07-30T12:30:12;3.10;;;1.48;;
56577;SDS011;42461;53.192;5.646;2022-07-30T12:32:38;1.77;;;1.17;;
56577;SDS011;42461;53.192;5.646;2022-07-30T12:35:08;2.53;;;1.40;;
56577;SDS011;42461;53.192;5.646;2022-07-30T12:37:34;2.17;;;1.13;;
56577;SDS011;42461;53.192;5.646;2022-07-30T12:40:04;3.08;;;1.35;;
56577;SDS011;42461;53.192;5.646;2022-07-30T12:42:30;3.67;;;1.30;;
56577;SDS011;42461;53.192;5.646;2022-07-30T12:44:56;1.98;;;1.30;;
56577;SDS011;42461;53.192;5.646;2022-07-30T12:47:24;5.65;;;1.50;;
56577;SDS011;42461;53.192;5.646;2022-07-30T12:49:51;4.10;;;1.20;;
56577;SDS011;42461;53.192;5.646;2022-07-30T12:57:26;3.30;;;1.42;;
56577;SDS011;42461;53.192;5.646;2022-07-30T13:00:03;1.55;;;1.20;;
56577;SDS011;42461;53.192;5.646;2022-07-30T13:02:31;3.03;;;1.55;;
56577;SDS011;42461;53.192;5.646;2022-07-30T13:04:57;3.80;;;1.70;;
56577;SDS011;42461;53.192;5.646;2022-07-30T13:07:23;5.30;;;1.92;;
56577;SDS011;42461;53.192;5.646;2022-07-30T13:10:08;3.78;;;1.40;;
56577;SDS011;42461;53.192;5.646;2022-07-30T13:12:34;2.50;;;1.23;;
56577;SDS011;42461;53.192;5.646;2022-07-30T13:15:00;3.80;;;1.42;;
56577;SDS011;42461;53.192;5.646;2022-07-30T13:17:26;3.50;;;1.77;;
56577;SDS011;42461;53.192;5.646;2022-07-30T13:19:52;2.50;;;1.63;;
56577;SDS011;42461;53.192;5.646;2022-07-30T13:22:18;4.10;;;1.40;;
56577;SDS011;42461;53.192;5.646;2022-07-30T13:24:44;4.68;;;1.40;;
56577;SDS011;42461;53.192;5.646;2022-07-30T13:27:10;3.65;;;1.75;;
56577;SDS011;42461;53.192;5.646;2022-07-30T13:29:36;2.58;;;1.75;;
56577;SDS011;42461;53.192;5.646;2022-07-30T13:32:02;3.90;;;1.85;;
56577;SDS011;42461;53.192;5.646;2022-07-30T13:34:28;4.88;;;1.85;;
56577;SDS011;42461;53.192;5.646;2022-07-30T13:36:54;3.10;;;1.52;;
56577;SDS011;42461;53.192;5.646;2022-07-30T13:39:20;2.72;;;1.55;;
56577;SDS011;42461;53.192;5.646;2022-07-30T13:41:46;4.30;;;1.70;;
56577;SDS011;42461;53.192;5.646;2022-07-30T13:44:12;2.28;;;1.50;;
56577;SDS011;42461;53.192;5.646;2022-07-30T13:46:38;2.10;;;1.33;;
56577;SDS011;42461;53.192;5.646;2022-07-30T13:49:04;4.07;;;1.50;;
56577;SDS011;42461;53.192;5.646;2022-07-30T13:51:30;4.20;;;1.20;;
56577;SDS011;42461;53.192;5.646;2022-07-30T13:53:56;1.75;;;1.20;;
56577;SDS011;42461;53.192;5.646;2022-07-30T13:56:22;3.65;;;1.40;;
56577;SDS011;42461;53.192;5.646;2022-07-30T13:58:48;4.07;;;1.70;;
56577;SDS011;42461;53.192;5.646;2022-07-30T14:01:14;2.00;;;1.30;;
56577;SDS011;42461;53.192;5.646;2022-07-30T14:03:40;2.65;;;1.45;;
56577;SDS011;42461;53.192;5.646;2022-07-30T14:06:06;2.40;;;1.52;;
56577;SDS011;42461;53.192;5.646;2022-07-30T14:08:32;4.45;;;1.55;;
56577;SDS011;42461;53.192;5.646;2022-07-30T14:10:58;1.60;;;1.13;;
56577;SDS011;42461;53.192;5.646;2022-07-30T14:13:26;3.08;;;1.67;;
56577;SDS011;42461;53.192;5.646;2022-07-30T14:15:52;4.03;;;1.50;;
56577;SDS011;42461;53.192;5.646;2022-07-30T14:18:18;5.18;;;1.60;;
56577;SDS011;42461;53.192;5.646;2022-07-30T14:20:44;1.98;;;1.25;;
56577;SDS011;42461;53.192;5.646;2022-07-30T14:23:11;2.38;;;1.33;;
56577;SDS011;42461;53.192;5.646;2022-07-30T14:25:37;2.95;;;1.50;;
56577;SDS011;42461;53.192;5.646;2022-07-30T14:28:03;1.98;;;1.60;;
56577;SDS011;42461;53.192;5.646;2022-07-30T14:30:29;5.45;;;1.45;;
56577;SDS011;42461;53.192;5.646;2022-07-30T14:32:55;2.97;;;1.63;;
56577;SDS011;42461;53.192;5.646;2022-07-30T14:35:21;3.47;;;1.38;;
56577;SDS011;42461;53.192;5.646;2022-07-30T14:37:47;2.47;;;1.60;;
56577;SDS011;42461;53.192;5.646;2022-07-30T14:40:13;2.42;;;1.50;;
56577;SDS011;42461;53.192;5.646;2022-07-30T14:42:39;4.30;;;1.70;;
56577;SDS011;42461;53.192;5.646;2022-07-30T14:45:06;2.47;;;1.52;;
56577;SDS011;42461;53.192;5.646;2022-07-30T14:47:32;4.00;;;1.50;;
56577;SDS011;42461;53.192;5.646;2022-07-30T14:49:58;2.78;;;1.50;;
56577;SDS011;42461;53.192;5.646;2022-07-30T14:52:24;3.08;;;1.50;;
56577;SDS011;42461;53.192;5.646;2022-07-30T14:54:50;2.20;;;1.75;;
56577;SDS011;42461;53.192;5.646;2022-07-30T14:57:17;2.28;;;1.58;;
56577;SDS011;42461;53.192;5.646;2022-07-30T14:59:43;3.25;;;1.70;;
56577;SDS011;42461;53.192;5.646;2022-07-30T15:02:09;4.75;;;2.38;;
56577;SDS011;42461;53.192;5.646;2022-07-30T15:04:38;2.45;;;2.00;;
56577;SDS011;42461;53.192;5.646;2022-07-30T15:07:04;2.13;;;1.58;;
56577;SDS011;42461;53.192;5.646;2022-07-30T15:09:30;6.10;;;1.70;;
56577;SDS011;42461;53.192;5.646;2022-07-30T15:11:57;2.72;;;1.50;;
56577;SDS011;42461;53.192;5.646;2022-07-30T15:14:24;2.30;;;1.80;;
56577;SDS011;42461;53.192;5.646;2022-07-30T15:16:51;5.43;;;1.85;;